createdAt,value
2022-11-15T00:02:24.252Z,71.70
2022-11-15T00:04:50.859Z,72.50
2022-11-15T00:07:40.441Z,71.80
2022-11-15T00:10:04.411Z,72.40
2022-11-15T00:12:30.933Z,73.00
2022-11-15T00:14:57.436Z,73.40
2022-11-15T00:17:23.943Z,73.60
2022-11-15T00:19:50.570Z,73.10
2022-11-15T00:22:17.163Z,73.80
2022-11-15T00:24:43.702Z,74.00
2022-11-15T00:27:10.306Z,74.30
2022-11-15T00:29:39.412Z,74.30
2022-11-15T00:32:06.293Z,74.10
2022-11-15T00:34:32.831Z,74.10
2022-11-15T00:36:59.360Z,74.40
2022-11-15T00:39:25.888Z,75.00
2022-11-15T00:41:52.382Z,75.40
2022-11-15T00:44:18.934Z,75.40
2022-11-15T00:46:45.519Z,74.90
2022-11-15T00:49:12.137Z,75.00
2022-11-15T00:51:38.673Z,75.10
2022-11-15T00:54:05.288Z,75.50
2022-11-15T00:56:31.822Z,75.10
2022-11-15T00:58:58.338Z,75.30
2022-11-15T01:01:25.016Z,76.10
2022-11-15T01:03:51.668Z,74.90
2022-11-15T01:06:18.246Z,75.40
2022-11-15T01:08:44.768Z,74.80
2022-11-15T01:11:12.611Z,75.60
2022-11-15T01:13:39.822Z,74.80
2022-11-15T01:16:09.167Z,75.30
2022-11-15T01:18:35.735Z,76.20
2022-11-15T01:21:05.594Z,76.10
2022-11-15T01:23:32.438Z,76.20
2022-11-15T01:25:59.772Z,76.10
2022-11-15T01:28:26.346Z,75.40
2022-11-15T01:30:52.923Z,74.50
2022-11-15T01:33:19.552Z,74.20
2022-11-15T01:35:46.066Z,74.60
2022-11-15T01:38:12.715Z,75.10
2022-11-15T01:40:39.238Z,76.10
2022-11-15T01:43:24.814Z,76.10
2022-11-15T01:46:14.323Z,76.10
2022-11-15T01:48:40.905Z,76.00
2022-11-15T01:51:08.966Z,76.00
2022-11-15T01:53:38.211Z,76.00
2022-11-15T01:56:06.036Z,76.00
2022-11-15T01:58:32.846Z,76.00
2022-11-15T02:00:59.755Z,77.10
2022-11-15T02:03:31.001Z,77.60
2022-11-15T02:05:58.592Z,76.90
2022-11-15T02:08:25.224Z,77.60
2022-11-15T02:10:51.746Z,78.10
2022-11-15T02:13:18.634Z,79.10
2022-11-15T02:16:05.498Z,78.40
2022-11-15T02:18:38.049Z,78.20
2022-11-15T02:21:04.541Z,78.10
2022-11-15T02:23:49.616Z,77.80
2022-11-15T02:26:39.450Z,77.20
2022-11-15T02:29:11.287Z,76.70
2022-11-15T02:31:55.894Z,77.40
2022-11-15T02:34:29.321Z,77.40
2022-11-15T02:37:03.788Z,77.40
2022-11-15T02:39:33.055Z,78.20
2022-11-15T02:42:04.855Z,78.20
2022-11-15T02:44:44.458Z,77.00
2022-11-15T02:47:15.684Z,75.80
2022-11-15T02:49:44.660Z,73.60
2022-11-15T02:52:15.436Z,72.40
2022-11-15T02:54:41.967Z,71.60
2022-11-15T02:57:13.199Z,70.60
2022-11-15T02:59:57.547Z,69.70
2022-11-15T03:02:36.580Z,71.40
2022-11-15T03:05:15.182Z,74.40
2022-11-15T03:07:46.910Z,75.60
2022-11-15T03:10:18.901Z,78.20
2022-11-15T03:12:52.562Z,79.30
2022-11-15T03:15:24.742Z,79.60
2022-11-15T03:17:57.110Z,78.80
2022-11-15T03:20:24.867Z,78.20
2022-11-15T03:22:52.052Z,76.50
2022-11-15T03:25:20.762Z,75.40
2022-11-15T03:27:49.427Z,75.40
2022-11-15T03:30:16.727Z,75.40
2022-11-15T03:32:46.938Z,75.40
2022-11-15T03:35:15.045Z,75.40
2022-11-15T03:37:43.834Z,75.30
2022-11-15T03:40:10.859Z,73.00
2022-11-15T03:42:45.980Z,72.00
2022-11-15T03:45:20.304Z,71.30
2022-11-15T03:47:49.237Z,72.10
2022-11-15T03:50:17.879Z,71.90
2022-11-15T03:52:46.250Z,73.40
2022-11-15T03:55:14.322Z,70.60
2022-11-15T03:57:40.875Z,72.10
2022-11-15T04:00:08.126Z,76.60
2022-11-15T04:02:34.687Z,78.00
2022-11-15T04:05:01.232Z,77.90
2022-11-15T04:07:27.835Z,77.90
2022-11-15T04:10:03.922Z,77.90
2022-11-15T04:12:33.991Z,75.60
2022-11-15T04:15:08.248Z,74.80
2022-11-15T04:17:37.542Z,72.40
2022-11-15T04:20:23.494Z,71.90
2022-11-15T04:23:11.589Z,71.50
2022-11-15T04:25:38.152Z,71.90
2022-11-15T04:28:04.741Z,71.80
2022-11-15T04:30:31.350Z,71.30
2022-11-15T04:32:57.914Z,70.90
2022-11-15T04:35:24.497Z,70.80
2022-11-15T04:37:51.065Z,71.00
2022-11-15T04:40:17.608Z,70.40
2022-11-15T04:42:44.304Z,70.20
2022-11-15T04:45:10.904Z,69.70
2022-11-15T04:47:37.511Z,75.00
2022-11-15T04:50:04.261Z,80.30
2022-11-15T04:52:30.802Z,82.80
2022-11-15T04:54:57.343Z,85.10
2022-11-15T04:57:23.871Z,85.30
2022-11-15T04:59:50.407Z,85.20
2022-11-15T05:02:16.932Z,85.30
2022-11-15T05:04:43.439Z,84.60
2022-11-15T05:07:10.051Z,82.90
2022-11-15T05:09:36.610Z,82.90
2022-11-15T05:12:03.224Z,82.90
2022-11-15T05:14:30.219Z,83.80
2022-11-15T05:16:56.822Z,83.70
2022-11-15T05:19:23.747Z,82.90
2022-11-15T05:21:50.361Z,82.90
2022-11-15T05:24:16.942Z,82.90
2022-11-15T05:26:43.444Z,80.70
2022-11-15T05:29:10.254Z,79.20
2022-11-15T05:31:40.145Z,78.90
2022-11-15T05:34:07.014Z,78.10
2022-11-15T05:36:41.971Z,76.30
2022-11-15T05:39:09.453Z,74.70
2022-11-15T05:41:56.965Z,74.70
2022-11-15T05:44:23.962Z,74.70
2022-11-15T05:46:51.553Z,74.60
2022-11-15T05:49:20.290Z,74.60
2022-11-15T05:51:48.149Z,87.80
2022-11-15T05:54:15.213Z,81.80
2022-11-15T05:56:41.951Z,78.00
2022-11-15T05:59:09.082Z,78.20
2022-11-15T06:01:35.694Z,78.10
2022-11-15T06:04:02.233Z,77.40
2022-11-15T06:06:29.419Z,76.00
2022-11-15T06:08:55.989Z,74.60
2022-11-15T06:11:22.529Z,73.50
2022-11-15T06:13:49.176Z,74.60
2022-11-15T06:16:15.743Z,74.50
2022-11-15T06:18:42.381Z,73.70
2022-11-15T06:21:08.941Z,73.90
2022-11-15T06:23:35.827Z,74.40
2022-11-15T06:26:03.700Z,74.40
2022-11-15T06:28:33.341Z,75.80
2022-11-15T06:31:03.859Z,78.30
2022-11-15T06:33:30.737Z,78.90
2022-11-15T06:36:00.680Z,79.10
2022-11-15T06:38:27.457Z,78.20
2022-11-15T06:40:53.999Z,78.00
2022-11-15T06:43:20.596Z,77.60
2022-11-15T06:45:47.143Z,74.60
2022-11-15T06:48:14.832Z,74.50
2022-11-15T06:50:41.358Z,72.70
2022-11-15T06:53:07.893Z,70.70
2022-11-15T06:55:34.477Z,70.30
2022-11-15T06:58:01.075Z,69.50
2022-11-15T07:00:27.595Z,72.70
2022-11-15T07:02:54.166Z,74.50
2022-11-15T07:05:20.725Z,76.00
2022-11-15T07:07:52.094Z,77.00
2022-11-15T07:10:18.619Z,77.30
2022-11-15T07:12:47.862Z,77.40
2022-11-15T07:15:14.474Z,77.50
2022-11-15T07:17:41.000Z,77.20
2022-11-15T07:20:07.959Z,76.50
2022-11-15T07:22:34.473Z,76.10
2022-11-15T07:25:00.980Z,75.90
2022-11-15T07:27:27.907Z,75.20
2022-11-15T07:29:54.488Z,75.20
2022-11-15T07:32:21.078Z,75.50
2022-11-15T07:34:47.646Z,75.30
2022-11-15T07:37:14.185Z,75.70
2022-11-15T07:39:40.734Z,75.60
2022-11-15T07:42:26.104Z,74.20
2022-11-15T07:44:52.672Z,71.20
2022-11-15T07:47:19.786Z,66.40
2022-11-15T07:49:47.039Z,61.80
2022-11-15T07:52:13.885Z,59.30
2022-11-15T07:54:40.681Z,54.70
2022-11-15T07:57:08.168Z,50.40
2022-11-15T07:59:35.875Z,47.50
2022-11-15T08:02:02.813Z,39.50
2022-11-15T08:04:29.448Z,32.00
2022-11-15T08:06:56.370Z,28.60
2022-11-15T08:09:22.956Z,20.00
2022-11-15T08:11:49.524Z,13.60
2022-11-15T08:14:16.062Z,10.00
2022-11-15T08:16:42.589Z,8.50
2022-11-15T08:19:09.172Z,4.10
2022-11-15T08:21:36.126Z,1.00
2022-11-15T08:24:02.737Z,1.00
2022-11-15T08:26:31.084Z,1.00
2022-11-15T08:28:57.628Z,1.00
2022-11-15T08:31:24.187Z,1.00
2022-11-15T08:33:50.775Z,1.00
2022-11-15T08:36:17.816Z,1.00
2022-11-15T08:38:44.369Z,1.00
2022-11-15T08:41:13.308Z,1.00
2022-11-15T08:43:39.803Z,1.00
2022-11-15T08:46:06.338Z,1.00
2022-11-15T08:48:33.206Z,1.00
2022-11-15T08:50:59.911Z,1.00
2022-11-15T08:53:26.645Z,1.00
2022-11-15T08:55:53.276Z,1.00
2022-11-15T08:58:19.780Z,1.00
2022-11-15T09:00:46.308Z,1.00
2022-11-15T09:03:12.845Z,1.00
2022-11-15T09:05:39.461Z,1.00
2022-11-15T09:08:19.050Z,1.00
2022-11-15T09:10:52.738Z,1.00
2022-11-15T09:13:19.246Z,1.00
2022-11-15T09:15:46.052Z,1.00
2022-11-15T09:18:12.559Z,1.00
2022-11-15T09:20:39.155Z,1.00
2022-11-15T09:23:05.863Z,1.00
2022-11-15T09:25:32.908Z,1.00
2022-11-15T09:27:59.446Z,1.00
2022-11-15T09:30:26.313Z,1.00
2022-11-15T09:32:52.868Z,1.00
2022-11-15T09:35:19.383Z,1.00
2022-11-15T09:37:46.555Z,1.00
2022-11-15T09:40:17.262Z,1.00
2022-11-15T09:42:49.662Z,1.00
2022-11-15T09:45:16.159Z,1.00
2022-11-15T09:47:50.737Z,1.00
2022-11-15T09:50:20.916Z,1.00
2022-11-15T09:52:47.432Z,1.00
2022-11-15T09:55:22.104Z,1.00
2022-11-15T09:57:53.244Z,1.00
2022-11-15T10:00:45.508Z,1.00
2022-11-15T10:03:13.169Z,1.00
2022-11-15T10:05:44.347Z,1.00
2022-11-15T10:08:26.245Z,1.00
2022-11-15T10:11:15.849Z,1.00
2022-11-15T10:13:42.651Z,1.00
2022-11-15T10:16:27.763Z,1.00
2022-11-15T10:18:54.405Z,1.00
2022-11-15T10:21:31.513Z,1.00
2022-11-15T10:23:59.109Z,1.00
2022-11-15T10:26:25.823Z,1.00
2022-11-15T10:28:52.357Z,1.00
2022-11-15T10:31:26.757Z,1.00
2022-11-15T10:34:00.280Z,1.00
2022-11-15T10:36:26.854Z,1.00
2022-11-15T10:38:55.390Z,1.00
2022-11-15T10:41:23.141Z,1.00
2022-11-15T10:44:08.101Z,1.00
2022-11-15T10:46:50.878Z,1.00
2022-11-15T10:49:18.896Z,1.00
2022-11-15T10:51:49.393Z,1.00
2022-11-15T10:54:21.236Z,1.00
2022-11-15T10:56:50.892Z,1.00
2022-11-15T10:59:24.045Z,1.00
2022-11-15T11:01:50.755Z,1.00
2022-11-15T11:04:17.356Z,1.00
2022-11-15T11:07:02.141Z,1.00
2022-11-15T11:09:33.631Z,1.00
2022-11-15T11:12:00.895Z,1.00
2022-11-15T11:14:34.853Z,1.00
2022-11-15T11:17:07.416Z,1.00
2022-11-15T11:19:34.232Z,1.00
2022-11-15T11:22:04.865Z,1.00
2022-11-15T11:24:43.640Z,1.00
2022-11-15T11:27:19.800Z,1.00
2022-11-15T11:29:52.815Z,1.00
2022-11-15T11:32:25.159Z,1.00
2022-11-15T11:34:54.794Z,1.00
2022-11-15T11:37:27.476Z,1.00
2022-11-15T11:40:12.853Z,1.00
2022-11-15T11:42:42.504Z,1.00
2022-11-15T11:45:24.746Z,1.00
2022-11-15T11:47:55.364Z,1.00
2022-11-15T11:50:24.444Z,1.00
2022-11-15T11:53:04.558Z,1.00
2022-11-15T11:55:39.502Z,1.00
2022-11-15T11:58:29.331Z,1.00
2022-11-15T12:00:56.095Z,1.00
2022-11-15T12:03:29.578Z,1.00
2022-11-15T12:05:58.639Z,1.00
2022-11-15T12:08:30.090Z,1.00
2022-11-15T12:11:15.734Z,1.00
2022-11-15T12:13:43.398Z,1.00
2022-11-15T12:16:14.896Z,1.00
2022-11-15T12:18:45.528Z,1.00
2022-11-15T12:21:17.982Z,1.00
2022-11-15T12:23:47.319Z,1.00
2022-11-15T12:26:29.057Z,1.00
2022-11-15T12:29:07.380Z,1.00
2022-11-15T12:31:34.246Z,1.00
2022-11-15T12:34:07.094Z,1.00
2022-11-15T12:36:36.907Z,1.00
2022-11-15T12:39:10.590Z,1.00
2022-11-15T12:41:39.964Z,1.00
2022-11-15T12:44:11.443Z,1.00
2022-11-15T12:46:40.934Z,1.00
2022-11-15T12:49:12.570Z,1.00
2022-11-15T12:51:59.059Z,1.00
2022-11-15T12:54:25.604Z,1.00
2022-11-15T12:57:04.351Z,1.00
2022-11-15T12:59:49.798Z,1.00
2022-11-15T13:02:24.812Z,1.00
2022-11-15T13:04:51.849Z,1.00
2022-11-15T13:07:36.513Z,1.00
2022-11-15T13:10:27.746Z,1.00
2022-11-15T13:12:56.754Z,1.00
2022-11-15T13:15:38.245Z,1.00
2022-11-15T13:18:27.100Z,1.00
2022-11-15T13:20:57.997Z,1.00
2022-11-15T13:23:27.606Z,1.00
2022-11-15T13:26:09.241Z,1.00
2022-11-15T13:28:42.024Z,1.00
2022-11-15T13:31:14.507Z,1.00
2022-11-15T13:33:41.095Z,1.00
2022-11-15T13:36:10.027Z,1.00
2022-11-15T13:38:37.950Z,1.00
2022-11-15T13:41:21.649Z,1.00
2022-11-15T13:43:49.485Z,1.00
2022-11-15T13:46:19.162Z,1.00
2022-11-15T13:48:46.817Z,1.00
2022-11-15T13:51:20.276Z,1.00
2022-11-15T13:53:48.685Z,1.00
2022-11-15T13:56:17.038Z,1.00
2022-11-15T13:58:43.703Z,1.00
2022-11-15T14:01:15.247Z,1.00
2022-11-15T14:03:47.798Z,1.00
2022-11-15T14:06:18.960Z,1.00
2022-11-15T14:09:02.842Z,1.00
2022-11-15T14:11:29.503Z,1.00
2022-11-15T14:14:08.192Z,1.00
2022-11-15T14:16:36.703Z,1.00
2022-11-15T14:19:04.034Z,1.00
2022-11-15T14:21:31.016Z,1.00
2022-11-15T14:24:20.315Z,1.00
2022-11-15T14:26:46.893Z,1.00
2022-11-15T14:29:31.714Z,1.00
2022-11-15T14:32:13.489Z,1.00
2022-11-15T14:34:40.010Z,1.00
2022-11-15T14:37:11.006Z,1.00
2022-11-15T14:39:37.602Z,1.00
2022-11-15T14:42:04.530Z,1.00
2022-11-15T14:44:31.102Z,1.00
2022-11-15T14:46:57.637Z,1.00
2022-11-15T14:49:24.197Z,1.00
2022-11-15T14:51:50.896Z,1.00
2022-11-15T14:54:17.430Z,1.00
2022-11-15T14:56:44.004Z,1.00
2022-11-15T14:59:10.522Z,1.00
2022-11-15T15:01:37.026Z,1.00
2022-11-15T15:04:03.820Z,1.00
2022-11-15T15:06:31.556Z,1.00
2022-11-15T15:08:58.191Z,1.00
2022-11-15T15:11:26.940Z,1.00
2022-11-15T15:13:53.781Z,1.00
2022-11-15T15:16:20.442Z,1.00
2022-11-15T15:18:46.944Z,1.00
2022-11-15T15:21:21.996Z,1.00
2022-11-15T15:23:48.546Z,1.00
2022-11-15T15:26:15.350Z,1.00
2022-11-15T15:28:42.169Z,1.80
2022-11-15T15:31:09.292Z,3.20
2022-11-15T15:33:35.816Z,4.20
2022-11-15T15:36:02.870Z,5.80
2022-11-15T15:38:29.737Z,7.50
2022-11-15T15:40:56.559Z,9.70
2022-11-15T15:43:23.069Z,11.50
2022-11-15T15:45:49.617Z,12.30
2022-11-15T15:48:17.494Z,12.20
2022-11-15T15:50:44.273Z,13.10
2022-11-15T15:53:11.417Z,21.90
2022-11-15T15:55:38.463Z,16.00
2022-11-15T15:58:05.883Z,16.10
2022-11-15T16:00:34.640Z,17.70
2022-11-15T16:03:01.383Z,19.90
2022-11-15T16:05:28.166Z,21.10
2022-11-15T16:07:54.874Z,21.00
2022-11-15T16:10:28.685Z,22.70
2022-11-15T16:12:56.071Z,23.70
2022-11-15T16:15:23.592Z,25.40
2022-11-15T16:17:52.920Z,27.40
2022-11-15T16:20:25.141Z,28.30
2022-11-15T16:22:51.679Z,28.50
2022-11-15T16:25:18.243Z,29.60
2022-11-15T16:27:45.910Z,29.60
2022-11-15T16:30:16.488Z,29.60
2022-11-15T16:32:43.377Z,29.50
2022-11-15T16:35:16.235Z,30.20
2022-11-15T16:37:44.932Z,33.80
2022-11-15T16:40:18.525Z,34.80
2022-11-15T16:42:45.034Z,34.80
2022-11-15T16:45:14.761Z,35.60
2022-11-15T16:47:41.278Z,36.70
2022-11-15T16:50:18.307Z,37.80
2022-11-15T16:52:45.166Z,38.80
2022-11-15T16:55:11.722Z,40.10
2022-11-15T16:57:38.289Z,40.10
2022-11-15T17:00:05.425Z,40.00
2022-11-15T17:02:33.894Z,39.90
2022-11-15T17:05:03.319Z,40.00
2022-11-15T17:07:32.297Z,40.20
2022-11-15T17:09:58.889Z,40.00
2022-11-15T17:12:25.442Z,42.20
2022-11-15T17:14:51.993Z,41.90
2022-11-15T17:17:18.573Z,42.10
2022-11-15T17:19:45.065Z,42.40
2022-11-15T17:22:11.761Z,42.70
2022-11-15T17:24:38.279Z,43.40
2022-11-15T17:27:04.870Z,42.20
2022-11-15T17:29:31.472Z,41.90
2022-11-15T17:31:57.996Z,42.50
2022-11-15T17:34:24.487Z,42.20
2022-11-15T17:36:50.997Z,42.10
2022-11-15T17:39:19.501Z,42.70
2022-11-15T17:41:46.445Z,42.90
2022-11-15T17:44:13.002Z,41.40
2022-11-15T17:46:40.700Z,40.10
2022-11-15T17:49:07.371Z,40.10
2022-11-15T17:51:34.064Z,40.20
2022-11-15T17:54:00.621Z,40.10
2022-11-15T17:56:28.190Z,40.10
2022-11-15T17:58:55.515Z,40.20
2022-11-15T18:01:23.792Z,40.10
2022-11-15T18:03:50.858Z,38.90
2022-11-15T18:06:18.147Z,37.90
2022-11-15T18:08:46.093Z,37.50
2022-11-15T18:11:17.036Z,37.70
2022-11-15T18:13:49.435Z,36.60
2022-11-15T18:16:19.604Z,35.60
2022-11-15T18:18:46.463Z,34.80
2022-11-15T18:21:14.758Z,34.00
2022-11-15T18:23:42.110Z,33.50
2022-11-15T18:26:10.237Z,33.60
2022-11-15T18:28:38.286Z,33.70
2022-11-15T18:31:12.043Z,33.30
2022-11-15T18:33:38.881Z,32.50
2022-11-15T18:36:06.742Z,31.10
2022-11-15T18:38:33.758Z,30.90
2022-11-15T18:41:30.684Z,30.60
2022-11-15T18:44:00.493Z,31.10
2022-11-15T18:46:28.446Z,30.00
2022-11-15T18:48:55.383Z,29.90
2022-11-15T18:51:22.940Z,29.20
2022-11-15T18:53:52.126Z,29.30
2022-11-15T18:56:19.461Z,29.30
2022-11-15T18:58:50.302Z,29.30
2022-11-15T19:01:17.673Z,29.30
2022-11-15T19:03:45.220Z,29.20
2022-11-15T19:06:13.836Z,29.20
2022-11-15T19:08:41.097Z,29.90
2022-11-15T19:11:07.641Z,31.60
2022-11-15T19:13:34.828Z,32.80
2022-11-15T19:16:02.605Z,34.40
2022-11-15T19:18:29.615Z,36.10
2022-11-15T19:20:56.859Z,36.90
2022-11-15T19:23:24.096Z,38.20
2022-11-15T19:25:58.829Z,39.80
2022-11-15T19:28:25.990Z,39.80
2022-11-15T19:30:52.807Z,40.10
2022-11-15T19:33:22.590Z,39.70
2022-11-15T19:35:51.663Z,41.50
2022-11-15T19:38:18.162Z,42.50
2022-11-15T19:40:45.109Z,43.20
2022-11-15T19:43:12.928Z,44.20
2022-11-15T19:45:39.437Z,45.00
2022-11-15T19:48:06.170Z,45.10
2022-11-15T19:50:32.698Z,44.80
2022-11-15T19:52:59.290Z,45.90
2022-11-15T19:55:25.876Z,46.20
2022-11-15T19:57:52.419Z,46.40
2022-11-15T20:00:19.156Z,46.80
2022-11-15T20:02:45.655Z,47.60
2022-11-15T20:05:18.170Z,48.60
2022-11-15T20:07:47.483Z,50.10
2022-11-15T20:10:18.141Z,50.20
2022-11-15T20:12:47.208Z,50.20
2022-11-15T20:15:13.802Z,50.20
2022-11-15T20:17:40.295Z,49.30
2022-11-15T20:20:07.214Z,49.20
2022-11-15T20:22:33.811Z,49.00
2022-11-15T20:25:00.491Z,50.10
2022-11-15T20:27:27.080Z,50.10
2022-11-15T20:29:54.574Z,50.10
2022-11-15T20:32:21.135Z,50.10
2022-11-15T20:34:52.843Z,50.10
2022-11-15T20:37:20.551Z,50.10
2022-11-15T20:39:47.121Z,50.10
2022-11-15T20:42:13.699Z,50.10
2022-11-15T20:44:40.272Z,50.00
2022-11-15T20:47:07.006Z,50.00
2022-11-15T20:49:33.585Z,50.00
2022-11-15T20:52:00.165Z,50.10
2022-11-15T20:54:26.741Z,50.00
2022-11-15T20:56:53.327Z,51.10
2022-11-15T20:59:19.850Z,50.70
2022-11-15T21:01:48.000Z,49.90
2022-11-15T21:04:14.965Z,50.20
2022-11-15T21:06:46.028Z,50.00
2022-11-15T21:09:49.503Z,49.90
2022-11-15T21:12:16.254Z,49.90
2022-11-15T21:14:44.014Z,50.00
2022-11-15T21:17:10.571Z,50.00
2022-11-15T21:19:37.292Z,50.00
2022-11-15T21:22:04.452Z,49.90
2022-11-15T21:24:31.312Z,49.90
2022-11-15T21:26:57.901Z,49.90
2022-11-15T21:29:24.507Z,49.90
2022-11-15T21:31:51.683Z,50.50
2022-11-15T21:34:18.268Z,50.70
2022-11-15T21:36:45.321Z,51.60
2022-11-15T21:39:11.846Z,51.50
2022-11-15T21:41:38.488Z,51.40
2022-11-15T21:44:05.250Z,52.00
2022-11-15T21:46:31.913Z,52.10
2022-11-15T21:48:58.712Z,52.80
2022-11-15T21:51:25.307Z,53.20
2022-11-15T21:53:55.885Z,53.60
2022-11-15T21:56:22.710Z,53.10
2022-11-15T21:58:49.344Z,52.50
2022-11-15T22:01:34.493Z,51.70
2022-11-15T22:04:01.095Z,53.20
2022-11-15T22:06:27.728Z,52.60
2022-11-15T22:08:54.289Z,54.30
2022-11-15T22:11:20.925Z,55.40
2022-11-15T22:13:47.447Z,56.40
2022-11-15T22:16:13.988Z,56.10
2022-11-15T22:18:40.537Z,56.20
2022-11-15T22:21:11.399Z,55.20
2022-11-15T22:23:38.374Z,55.60
2022-11-15T22:26:05.530Z,55.40
2022-11-15T22:28:33.042Z,54.00
2022-11-15T22:31:00.498Z,54.70
2022-11-15T22:33:28.469Z,55.20
2022-11-15T22:35:55.354Z,55.20
2022-11-15T22:38:22.349Z,57.10
2022-11-15T22:40:49.251Z,60.00
2022-11-15T22:43:17.989Z,60.00
2022-11-15T22:45:51.641Z,61.00
2022-11-15T22:48:19.657Z,62.80
2022-11-15T22:50:46.273Z,65.00
2022-11-15T22:53:12.835Z,66.20
2022-11-15T22:55:39.776Z,67.00
2022-11-15T22:58:06.462Z,68.60
2022-11-15T23:00:32.974Z,68.60
2022-11-15T23:02:59.557Z,70.00
2022-11-15T23:05:26.219Z,70.60
2022-11-15T23:07:52.750Z,71.10
2022-11-15T23:10:37.982Z,70.20
2022-11-15T23:13:17.022Z,69.90
2022-11-15T23:16:03.286Z,70.80
2022-11-15T23:18:33.031Z,72.70
2022-11-15T23:20:59.819Z,72.90
2022-11-15T23:23:26.398Z,73.50
2022-11-15T23:25:58.965Z,74.10
2022-11-15T23:28:25.515Z,73.90
2022-11-15T23:31:10.739Z,73.00
2022-11-15T23:33:55.739Z,71.40
2022-11-15T23:36:22.260Z,70.60
2022-11-15T23:38:48.947Z,69.50
2022-11-15T23:41:15.516Z,68.40
2022-11-15T23:43:42.332Z,68.60
2022-11-15T23:46:08.944Z,68.50
2022-11-15T23:48:35.914Z,68.50
2022-11-15T23:51:02.496Z,68.40
2022-11-15T23:53:29.036Z,68.40
2022-11-15T23:56:06.573Z,68.40
2022-11-15T23:58:33.806Z,68.40
